M I D A S
Marine Information and Data Acquisition System
Tripno 682 of the Zeeleeuw from 2004-04-05 07:58:26 to 2004-04-05 12:58:35
Back to CruiseResearch ActivitiesStationsMapUnderway DataData graphs

EquipmentUnitsComments
TimeDGPSUTC
LatitudeDGPSDM.mWGS84
LongitudeDGPSDM.mWGS84
SpeedMeteo Stationm/sRelative wind speed
DirectionMeteo StationdegRelative wind direction
TemperatureMeteo Stationdeg CelciusAir temperature
PressureMeteo StationPaAtmospheric pressure
HumidityMeteo Station%Relative humidity
Missing or incorrect values are displayed as -999
Metereological data collected by the RV Zeeleeuw from 2004-04-05 07:58:26 to 2004-04-05 12:58:35
Time Latitude Longitude Speed Direction Temperature Pressure Humidity
2004-04-05 07:59 51°13.596 2°56.097 4.8 201 8.4 101320 72
2004-04-05 08:00 51°13.612 2°56.048 9.6 175 8.5 101330 72
2004-04-05 08:01 51°13.64 2°55.95 9.1 172 8.5 101320 71
2004-04-05 08:02 51°13.674 2°55.837 3.6 172 8.7 101320 72
2004-04-05 08:03 51°13.685 2°55.778 4.9 208 8.7 101320 71
2004-04-05 08:04 51°13.677 2°55.761 3.2 253 8.8 101320 71
2004-04-05 08:05 51°13.728 2°55.742 6.5 348 8.8 101320 71
2004-04-05 08:06 51°13.813 2°55.645 6.5 352 8.8 101310 71
2004-04-05 08:07 51°13.939 2°55.551 10.5 325 8.8 101310 71
2004-04-05 08:08 51°14.064 2°55.462 11.5 296 8.8 101320 71
2004-04-05 08:09 51°14.205 2°55.339 16.4 328 8.8 101310 71
2004-04-05 08:10 51°14.33 2°55.137 14.2 322 8.7 101290 72
2004-04-05 08:11 51°14.429 2°54.887 17.2 351 8.6 101250 72
2004-04-05 08:12 51°14.401 2°54.576 18.9 13 8.5 101270 72
2004-04-05 08:13 51°14.307 2°54.259 18.1 19 8.4 101270 73
2004-04-05 08:14 51°14.209 2°53.927 18.4 18 8.4 101270 74
2004-04-05 08:15 51°14.109 2°53.59 19.9 16 8.3 101260 74
2004-04-05 08:16 51°14.009 2°53.253 18.5 18 8.2 101270 76
2004-04-05 08:17 51°13.91 2°52.912 17.4 13 8 101270 76
2004-04-05 08:18 51°13.784 2°52.592 18.1 20 8 101250 77
2004-04-05 08:19 51°13.656 2°52.276 19.1 22 8.1 101260 77
2004-04-05 08:20 51°13.529 2°51.961 18.4 26 8 101240 78
2004-04-05 08:21 51°13.401 2°51.646 17.6 19 8 101260 78
2004-04-05 08:22 51°13.28 2°51.33 20.6 17 8 101270 78
2004-04-05 08:23 51°13.167 2°51.007 19.6 16 7.9 101250 77
2004-04-05 08:24 51°13.056 2°50.683 16.7 10 7.9 101270 77
2004-04-05 08:25 51°12.945 2°50.358 19.9 25 8 101260 77
2004-04-05 08:26 51°12.833 2°50.036 19.7 20 8 101270 78
2004-04-05 08:27 51°12.721 2°49.713 20.9 19 8 101270 78
2004-04-05 08:28 51°12.61 2°49.383 19.6 18 8 101270 78
2004-04-05 08:29 51°12.498 2°49.054 21 15 8 101280 78
2004-04-05 08:30 51°12.387 2°48.722 20.8 18 8 101260 77
2004-04-05 08:31 51°12.276 2°48.391 20.3 23 8 101270 77
2004-04-05 08:32 51°12.164 2°48.06 19.5 21 8 101260 76
2004-04-05 08:33 51°12.052 2°47.727 19 20 8.1 101260 76
2004-04-05 08:34 51°11.941 2°47.395 19.7 17 8.1 101270 76
2004-04-05 08:35 51°11.842 2°47.053 19.3 14 8 101260 76
2004-04-05 08:36 51°11.756 2°46.699 17.7 12 8 101280 76
2004-04-05 08:37 51°11.671 2°46.347 19.3 15 8.1 101280 77
2004-04-05 08:38 51°11.585 2°45.994 19.3 12 8.1 101280 76
2004-04-05 08:39 51°11.499 2°45.645 19.4 16 8.1 101270 76
2004-04-05 08:40 51°11.413 2°45.295 18.6 16 8.1 101270 76
2004-04-05 08:41 51°11.328 2°44.939 20 12 8.1 101270 76
2004-04-05 08:42 51°11.24 2°44.58 20.7 15 8.1 101280 76
2004-04-05 08:43 51°11.157 2°44.233 20.3 12 8.1 101290 76
2004-04-05 08:44 51°11.073 2°43.88 19.3 12 8.1 101280 76
2004-04-05 08:45 51°10.988 2°43.527 21.9 16 8.2 101290 76
2004-04-05 08:46 51°10.904 2°43.176 18.8 12 8.1 101280 76
2004-04-05 08:47 51°10.821 2°42.824 19.1 9 8.2 101290 77
2004-04-05 08:48 51°10.738 2°42.474 21.8 12 8.2 101290 77
2004-04-05 08:49 51°10.656 2°42.125 18.7 10 8.1 101290 77
2004-04-05 08:50 51°10.574 2°41.776 19.6 10 8.1 101270 77
2004-04-05 08:51 51°10.493 2°41.43 22.6 8 8.1 101290 77
2004-04-05 08:52 51°10.412 2°41.083 22.4 10 8.1 101280 76
2004-04-05 08:53 51°10.332 2°40.737 20.3 10 8.1 101280 76
2004-04-05 08:54 51°10.245 2°40.395 18.3 13 8.1 101290 77
2004-04-05 08:55 51°10.155 2°40.055 19.9 12 8.2 101280 77
2004-04-05 08:56 51°10.064 2°39.713 17.5 12 8.2 101280 77
2004-04-05 08:57 51°9.971 2°39.368 20.5 17 8.2 101280 77
2004-04-05 08:58 51°9.882 2°39.034 19.4 11 8.2 101290 77
2004-04-05 08:59 51°9.791 2°38.694 20.4 12 8.2 101260 76
2004-04-05 09:00 51°9.702 2°38.354 18.5 13 8.2 101280 77
2004-04-05 09:01 51°9.611 2°38.011 21.4 12 8.2 101290 77
2004-04-05 09:02 51°9.521 2°37.669 20.6 9 8.2 101280 76
2004-04-05 09:03 51°9.43 2°37.329 20.7 14 8.2 101280 76
2004-04-05 09:04 51°9.339 2°36.983 19.1 16 8.2 101290 76
2004-04-05 09:05 51°9.242 2°36.653 19.6 18 8.2 101290 76
2004-04-05 09:06 51°9.136 2°36.323 20.1 23 8.3 101280 76
2004-04-05 09:07 51°9.036 2°35.987 21.7 16 8.3 101280 76
2004-04-05 09:08 51°8.942 2°35.648 20.9 7 8.3 101270 76
2004-04-05 09:09 51°8.849 2°35.31 20.4 17 8.3 101280 76
2004-04-05 09:10 51°8.756 2°34.979 17.3 12 8.3 101280 76
2004-04-05 09:11 51°8.722 2°34.795 14.4 356 8.2 101320 75
2004-04-05 09:12 51°8.717 2°34.704 16.2 342 8.3 101330 76
2004-04-05 09:13 51°8.719 2°34.654 13.7 353 8.2 101300 75
2004-04-05 09:14 51°8.703 2°34.616 16.2 42 8.3 101330 75
2004-04-05 09:15 51°8.655 2°34.578 13.3 38 8.2 101300 76
2004-04-05 09:16 51°8.605 2°34.516 13.6 19 8.2 101310 76
2004-04-05 09:17 51°8.567 2°34.436 17.4 21 8.2 101320 76
2004-04-05 09:18 51°8.535 2°34.363 11.6 9 8.2 101320 76
2004-04-05 09:19 51°8.507 2°34.28 13.8 10 8.3 101330 76
2004-04-05 09:20 51°8.472 2°34.206 14.3 15 8.3 101320 76
2004-04-05 09:21 51°8.44 2°34.14 13.4 21 8.3 101320 76
2004-04-05 09:22 51°8.407 2°34.067 14.2 9 8.3 101330 75
2004-04-05 09:23 51°8.375 2°33.983 12.7 12 8.4 101330 77
2004-04-05 09:24 51°8.341 2°33.906 15 17 8.4 101330 76
2004-04-05 09:25 51°8.308 2°33.837 13.7 8 8.3 101320 75
2004-04-05 09:26 51°8.281 2°33.763 16.2 10 8.3 101330 75
2004-04-05 09:27 51°8.252 2°33.688 15.4 17 8.2 101330 75
2004-04-05 09:28 51°8.223 2°33.612 14.7 7 8.2 101320 75
2004-04-05 09:29 51°8.198 2°33.527 15.5 13 8.3 101330 76
2004-04-05 09:30 51°8.167 2°33.444 15 18 8.2 101320 75
2004-04-05 09:31 51°8.136 2°33.361 12.5 5 8.3 101320 76
2004-04-05 09:32 51°8.111 2°33.276 13.2 18 8.3 101320 76
2004-04-05 09:33 51°8.077 2°33.2 14.3 18 8.3 101310 75
2004-04-05 09:34 51°8.042 2°33.13 13.7 9 8.3 101310 75
2004-04-05 09:35 51°8.019 2°33.055 14.3 358 8.3 101320 75
2004-04-05 09:36 51°8.003 2°32.979 15.9 8 8.3 101320 75
2004-04-05 09:37 51°7.972 2°32.923 13.3 25 8.3 101310 75
2004-04-05 09:38 51°7.94 2°32.863 15.3 14 8.4 101310 76
2004-04-05 09:39 51°7.914 2°32.793 14.5 7 8.4 101310 76
2004-04-05 09:40 51°7.888 2°32.724 17.4 18 8.4 101300 76
2004-04-05 09:41 51°7.862 2°32.653 14.7 9 8.3 101300 76
2004-04-05 09:42 51°7.846 2°32.577 14.5   8.3 101320 76
2004-04-05 09:43 51°7.834 2°32.501 16.5 10 8.3 101310 76
2004-04-05 09:44 51°7.806 2°32.435 14.8 17 8.3 101310 76
2004-04-05 09:45 51°7.775 2°32.373 18.1 8 8.3 101300 76
2004-04-05 09:46 51°7.769 2°32.31 15.6 333 8.3 101290 76
2004-04-05 09:47 51°7.806 2°32.261 13.2 308 8.3 101260 76
2004-04-05 09:48 51°7.859 2°32.218 16 303 8.3 101260 77
2004-04-05 09:49 51°7.916 2°32.185 12.6 304 8.3 101250 76
2004-04-05 09:50 51°7.977 2°32.165 13.5 282 8.3 101260 76
2004-04-05 09:51 51°8.047 2°32.174 14.3 264 8.3 101260 77
2004-04-05 09:52 51°8.118 2°32.216 12.7 231 8.2 101280 76
2004-04-05 09:53 51°8.179 2°32.278 10 251 8.2 101270 77
2004-04-05 09:54 51°8.219 2°32.319 10.3 257 8.2 101260 77
2004-04-05 09:55 51°8.247 2°32.352 10.2 255 8.2 101250 76
2004-04-05 09:56 51°8.265 2°32.382 12.4 258 8.3 101250 77
2004-04-05 09:57 51°8.28 2°32.409 15.2 269 8.4 101270 78
2004-04-05 09:58 51°8.291 2°32.44 13.5 266 8.3 101260 77
2004-04-05 09:59 51°8.3 2°32.476 14.3 265 8.3 101250 77
2004-04-05 10:00 51°8.329 2°32.51 9.1 253 8.3 101260 78
2004-04-05 10:01 51°8.37 2°32.585 8.6 197 8.4 101280 78
2004-04-05 10:02 51°8.367 2°32.693 13.5 123 8.3 101280 77
2004-04-05 10:03 51°8.326 2°32.766 16 96 8.3 101260 77
2004-04-05 10:04 51°8.271 2°32.829 15 89 8.3 101270 77
2004-04-05 10:05 51°8.211 2°32.895 15.5 85 8.2 101270 76
2004-04-05 10:06 51°8.146 2°32.958 13.5 78 8.2 101260 76
2004-04-05 10:07 51°8.096 2°32.963 13 32 8.2 101250 75
2004-04-05 10:08 51°8.081 2°32.957 13.4 13 8.3 101280 75
2004-04-05 10:09 51°8.077 2°32.975 14.5 22 8.3 101280 75
2004-04-05 10:10 51°8.078 2°33.018 14.1 49 8.3 101270 75
2004-04-05 10:11 51°8.073 2°33.065 13.4 52 8.3 101260 75
2004-04-05 10:12 51°8.049 2°33.076 13.8 16 8.3 101260 75
2004-04-05 10:13 51°8.043 2°33.062 14.2 358 8.4 101270 75
2004-04-05 10:14 51°8.045 2°33.06 14.9 351 8.5 101280 76
2004-04-05 10:15 51°8.06 2°33.081 13.4 327 8.4 101250 74
2004-04-05 10:16 51°8.084 2°33.108 14 328 8.5 101250 75
2004-04-05 10:17 51°8.109 2°33.129 12.4 332 8.6 101260 75
2004-04-05 10:18 51°8.132 2°33.146 13.2 333 8.6 101270 75
2004-04-05 10:19 51°8.18 2°33.111 15.8 311 8.6 101240 75
2004-04-05 10:20 51°8.282 2°33.089 10.5 273 8.5 101210 74
2004-04-05 10:21 51°8.418 2°33.192 10.1 265 8.5 101260 74
2004-04-05 10:22 51°8.621 2°33.345 5.2 248 8.5 101260 75
2004-04-05 10:23 51°8.813 2°33.586 7.3 267 8.4 101260 74
2004-04-05 10:24 51°9.009 2°33.836 7.8 259 8.4 101250 75
2004-04-05 10:25 51°9.204 2°34.072 9.7 263 8.4 101250 75
2004-04-05 10:26 51°9.402 2°34.316 6.1 254 8.4 101250 75
2004-04-05 10:27 51°9.603 2°34.556 7.5 265 8.4 101250 75
2004-04-05 10:28 51°9.806 2°34.8 7.5 272 8.5 101250 75
2004-04-05 10:29 51°10.001 2°35.046 6.5 257 8.5 101250 75
2004-04-05 10:30 51°10.197 2°35.291 6.3 263 8.4 101240 75
2004-04-05 10:31 51°10.403 2°35.536 8.5 261 8.5 101240 75
2004-04-05 10:32 51°10.6 2°35.768 7.9 260 8.5 101230 75
2004-04-05 10:33 51°10.795 2°36.01 9.3 262 8.5 101240 75
2004-04-05 10:34 51°10.993 2°36.249 8.1 259 8.5 101240 75
2004-04-05 10:35 51°11.193 2°36.487 6.5 254 8.5 101230 75
2004-04-05 10:36 51°11.392 2°36.728 5.5 255 8.5 101230 75
2004-04-05 10:37 51°11.589 2°36.965 7.8 237 8.4 101220 75
2004-04-05 10:38 51°11.793 2°37.181 10.3 267 8.5 101230 75
2004-04-05 10:39 51°12.011 2°37.363 7.8 260 8.5 101210 75
2004-04-05 10:40 51°12.222 2°37.576 6.4 256 8.5 101230 75
2004-04-05 10:41 51°12.43 2°37.787 7 280 8.5 101210 75
2004-04-05 10:42 51°12.637 2°38.003 7.4 269 8.5 101220 76
2004-04-05 10:43 51°12.844 2°38.221 8 266 8.4 101210 75
2004-04-05 10:44 51°13.055 2°38.433 4.9 250 8.4 101210 75
2004-04-05 10:45 51°13.255 2°38.657 8.1 261 8.5 101220 76
2004-04-05 10:46 51°13.468 2°38.831 9.2 285 8.4 101210 76
2004-04-05 10:47 51°13.691 2°38.927 9.7 298 8.5 101180 76
2004-04-05 10:48 51°13.918 2°38.994 11 295 8.5 101190 76
2004-04-05 10:49 51°14.136 2°38.952 14.4 311 8.5 101170 76
2004-04-05 10:50 51°14.318 2°38.79 15.4 318 8.5 101130 76
2004-04-05 10:51 51°14.491 2°38.595 16.4 319 8.5 101120 76
2004-04-05 10:52 51°14.649 2°38.376 17 329 8.5 101120 75
2004-04-05 10:53 51°14.753 2°38.122 18.5 343 8.5 101160 76
2004-04-05 10:54 51°14.81 2°37.85 15 339 8.5 101130 76
2004-04-05 10:55 51°14.84 2°37.756 12.9 326 8.5 101180 77
2004-04-05 10:56 51°14.864 2°37.746 12.1 322 8.5 101150 77
2004-04-05 10:57 51°14.883 2°37.767 11.4 318 8.5 101160 77
2004-04-05 10:58 51°14.903 2°37.81 10 231 8.5 101170 77
2004-04-05 10:59 51°14.928 2°37.842 11.5 43 8.5 101160 78
2004-04-05 11:00 51°14.978 2°37.825 12.4 304 8.5 101150 78
2004-04-05 11:01 51°15.04 2°37.799 10.8 305 8.6 101150 78
2004-04-05 11:02 51°15.102 2°37.774 10.6 292 8.6 101140 79
2004-04-05 11:03 51°15.167 2°37.769 11.2 291 8.6 101160 79
2004-04-05 11:04 51°15.231 2°37.777 11.3 279 8.6 101160 79
2004-04-05 11:05 51°15.289 2°37.792 12 285 8.6 101150 79
2004-04-05 11:06 51°15.345 2°37.808 12.1 279 8.6 101160 79
2004-04-05 11:07 51°15.403 2°37.827 11.1 274 8.5 101140 79
2004-04-05 11:08 51°15.463 2°37.858 5.4 255 8.5 101160 79
2004-04-05 11:09 51°15.528 2°37.908 8.6 259 8.5 101150 79
2004-04-05 11:10 51°15.582 2°37.952 10.3 258 8.5 101160 80
2004-04-05 11:11 51°15.627 2°38 11.9 265 8.5 101160 80
2004-04-05 11:12 51°15.667 2°38.048 11 270 8.4 101150 80
2004-04-05 11:13 51°15.709 2°38.091 10.2 267 8.5 101140 80
2004-04-05 11:14 51°15.754 2°38.128 10.8 279 8.5 101160 80
2004-04-05 11:15 51°15.808 2°38.157 11.3 266 8.5 101150 80
2004-04-05 11:16 51°15.868 2°38.193 13.5 269 8.5 101150 80
2004-04-05 11:17 51°15.927 2°38.225 11.3 273 8.5 101140 80
2004-04-05 11:18 51°15.984 2°38.262 15.2 267 8.5 101150 79
2004-04-05 11:19 51°16.037 2°38.293 13.8 278 8.4 101150 79
2004-04-05 11:20 51°16.093 2°38.324 12.7 273 8.5 101140 78
2004-04-05 11:21 51°16.15 2°38.357 12.3 266 8.5 101130 78
2004-04-05 11:22 51°16.206 2°38.394 10.6 274 8.5 101160 78
2004-04-05 11:23 51°16.261 2°38.425 12.6 274 8.5 101140 78
2004-04-05 11:24 51°16.315 2°38.455 10.9 282 8.6 101130 78
2004-04-05 11:25 51°16.369 2°38.48 12.4 287 8.5 101140 78
2004-04-05 11:26 51°16.424 2°38.507 13 280 8.6 101140 77
2004-04-05 11:27 51°16.48 2°38.543 10.8 276 8.5 101130 76
2004-04-05 11:28 51°16.538 2°38.583 13.5 273 8.6 101130 76
2004-04-05 11:29 51°16.595 2°38.618 10.9 277 8.6 101130 76
2004-04-05 11:30 51°16.647 2°38.643 11.5 292 8.7 101130 76
2004-04-05 11:31 51°16.697 2°38.668 10.3 283 8.7 101130 76
2004-04-05 11:32 51°16.746 2°38.698 11.6 293 8.7 101130 76
2004-04-05 11:33 51°16.797 2°38.73 10.3 283 8.7 101130 76
2004-04-05 11:34 51°16.853 2°38.76 12.1 275 8.7 101130 77
2004-04-05 11:35 51°16.913 2°38.808 7.8 257 8.7 101120 76
2004-04-05 11:36 51°16.975 2°38.895 8.4 238 8.6 101140 76
2004-04-05 11:37 51°17.033 2°38.999 7.4 225 8.6 101140 76
2004-04-05 11:38 51°17.08 2°39.128 5.2 180 8.6 101160 76
2004-04-05 11:39 51°17.102 2°39.262 9.7 151 8.7 101150 77
2004-04-05 11:40 51°17.109 2°39.376 8 132 8.7 101150 78
2004-04-05 11:41 51°17.11 2°39.48 10.8 135 8.7 101150 79
2004-04-05 11:42 51°17.128 2°39.603 9.5 212 8.7 101160 80
2004-04-05 11:43 51°17.19 2°39.669 10.4 280 8.7 101120 81
2004-04-05 11:44 51°17.262 2°39.669 10.8 287 8.7 101120 81
2004-04-05 11:45 51°17.345 2°39.653 12.9 290 8.7 101110 82
2004-04-05 11:46 51°17.446 2°39.631 9.4 292 8.7 101130 82
2004-04-05 11:47 51°17.571 2°39.632 11.6 275 8.6 101120 82
2004-04-05 11:48 51°17.685 2°39.639 13.2 278 8.7 101110 83
2004-04-05 11:49 51°17.739 2°39.667 9.3 276 8.6 101110 83
2004-04-05 11:50 51°17.772 2°39.721 13.1 274 8.7 101110 83
2004-04-05 11:51 51°17.801 2°39.778 13.1 277 8.7 101110 83
2004-04-05 11:52 51°17.827 2°39.838 11.6 282 8.6 101100 83
2004-04-05 11:53 51°17.852 2°39.901 11.3 280 8.6 101100 83
2004-04-05 11:54 51°17.876 2°39.965 12.4 281 8.7 101100 83
2004-04-05 11:55 51°17.901 2°40.029 11.6 284 8.6 101110 83
2004-04-05 11:56 51°17.933 2°40.078 13.1 308 8.7 101090 83
2004-04-05 11:57 51°17.961 2°40.086 13.1 344 8.7 101080 83
2004-04-05 11:58 51°17.976 2°40.105 11.3 344 8.7 101100 83
2004-04-05 11:59 51°17.991 2°40.134 11 351 8.8 101100 82
2004-04-05 12:00 51°18.007 2°40.159 11.3 352 8.8 101090 82
2004-04-05 12:01 51°18.024 2°40.177 11.6 347 8.8 101080 82
2004-04-05 12:02 51°18.036 2°40.197 9.8 353 8.8 101090 82
2004-04-05 12:03 51°18.046 2°40.22 12.7 353 8.8 101090 82
2004-04-05 12:04 51°18.057 2°40.24 11.3 351 8.8 101090 82
2004-04-05 12:05 51°18.068 2°40.259 11.9 354 8.9 101090 82
2004-04-05 12:06 51°18.08 2°40.281 11.4 345 8.8 101090 82
2004-04-05 12:07 51°18.094 2°40.299 10.3 339 8.9 101070 82
2004-04-05 12:08 51°18.112 2°40.316 10.7 324 8.9 101080 82
2004-04-05 12:09 51°18.14 2°40.327 11.3 228 8.9 101060 81
2004-04-05 12:10 51°18.175 2°40.334 10.3 298 8.9 101070 81
2004-04-05 12:11 51°18.226 2°40.352 12.2 270 8.9 101080 81
2004-04-05 12:12 51°18.305 2°40.408 9.1 220 8.8 101080 81
2004-04-05 12:13 51°18.342 2°40.573 8.7 133 8.8 101120 82
2004-04-05 12:14 51°18.322 2°40.773 12.7 109 8.8 101080 82
2004-04-05 12:15 51°18.267 2°40.988 8.8 99 8.7 101080 82
2004-04-05 12:16 51°18.197 2°41.223 11 97 8.7 101070 82
2004-04-05 12:17 51°18.123 2°41.455 11.2 102 8.7 101070 82
2004-04-05 12:18 51°18.047 2°41.689 9.9 100 8.6 101070 82
2004-04-05 12:19 51°17.967 2°41.93 10 90 8.6 101060 82
2004-04-05 12:20 51°17.877 2°42.199 13.9 100 8.6 101060 83
2004-04-05 12:21 51°17.778 2°42.467 12.4 99 8.6 101070 83
2004-04-05 12:22 51°17.684 2°42.732 12.2 99 8.6 101060 83
2004-04-05 12:23 51°17.591 2°42.996 13.5 90 8.6 101060 83
2004-04-05 12:24 51°17.479 2°43.252 12.7 90 8.6 101050 83
2004-04-05 12:25 51°17.36 2°43.514 9.9 80 8.6 101060 83
2004-04-05 12:26 51°17.218 2°43.809 15.2 83 8.6 101030 83
2004-04-05 12:27 51°17.077 2°44.101 13.7 83 8.6 101040 83
2004-04-05 12:28 51°16.934 2°44.399 8.3 75 8.6 101020 83
2004-04-05 12:29 51°16.804 2°44.703 13.9 88 8.6 101040 83
2004-04-05 12:30 51°16.674 2°45.005 14.8 89 8.6 101040 83
2004-04-05 12:31 51°16.534 2°45.308 12.3 95 8.6 101040 83
2004-04-05 12:32 51°16.411 2°45.627 11.2 112 8.6 101040 83
2004-04-05 12:33 51°16.302 2°45.966 11 103 8.6 101040 83
2004-04-05 12:34 51°16.21 2°46.31 12 111 8.7 101050 83
2004-04-05 12:35 51°16.128 2°46.68 11.5 106 8.7 101050 83
2004-04-05 12:36 51°16.052 2°47.055 11 103 8.7 101050 83
2004-04-05 12:37 51°15.969 2°47.421 10 111 8.7 101050 83
2004-04-05 12:38 51°15.88 2°47.79 11.1 107 8.7 101040 83
2004-04-05 12:39 51°15.812 2°48.179 9.9 108 8.7 101050 83
2004-04-05 12:40 51°15.764 2°48.567 10.7 118 8.7 101060 83
2004-04-05 12:41 51°15.717 2°48.949 7.8 120 8.7 101060 83
2004-04-05 12:42 51°15.673 2°49.342 10 120 8.8 101050 82
2004-04-05 12:43 51°15.631 2°49.731 8.2 121 8.8 101050 82
2004-04-05 12:44 51°15.591 2°50.139 8.6 116 8.8 101060 82
2004-04-05 12:45 51°15.562 2°50.533 9.5 128 8.9 101060 82
2004-04-05 12:46 51°15.529 2°50.933 9.9 125 8.9 101060 82
2004-04-05 12:47 51°15.493 2°51.329 8.7 126 8.8 101050 82
2004-04-05 12:48 51°15.429 2°51.711 11.5 112 8.8 101040 81
2004-04-05 12:49 51°15.349 2°52.076 11.9 105 8.8 101040 81
2004-04-05 12:50 51°15.263 2°52.443 11.8 111 8.9 101050 81
2004-04-05 12:51 51°15.17 2°52.813 13.5 113 8.9 101040 81
2004-04-05 12:52 51°15.087 2°53.167 12.6 123 8.8 101040 81
2004-04-05 12:53 51°15.01 2°53.532 9.9 121 8.9 101040 81
2004-04-05 12:54 51°14.893 2°53.849 15.1 85 8.9 101020 81
2004-04-05 12:55 51°14.742 2°54.131 14.1 100 8.9 101010 81
2004-04-05 12:56 51°14.599 2°54.435 14.8 106 8.9 101010 80
2004-04-05 12:57 51°14.469 2°54.761 13.8 113 8.9 101020 80
2004-04-05 12:58 51°14.361 2°55.08 13 107 9 101040 80